createdAt,value
2019-01-16T02:31:57.252Z,22.62
2019-01-16T02:34:48.137Z,21.80
2019-01-16T02:37:39.474Z,22.07
2019-01-16T02:40:32.322Z,20.80
2019-01-16T02:43:25.367Z,22.77
2019-01-16T02:46:16.456Z,24.00
2019-01-16T02:48:57.255Z,22.70
2019-01-16T02:51:55.428Z,23.42
2019-01-16T02:54:43.784Z,21.90
2019-01-16T02:57:28.206Z,22.22
2019-01-16T03:00:12.807Z,22.48
2019-01-16T03:03:11.477Z,22.15
2019-01-16T03:06:16.329Z,22.65
2019-01-16T03:08:57.949Z,21.87
2019-01-16T03:11:49.469Z,22.35
2019-01-16T03:14:48.337Z,23.42
2019-01-16T03:17:41.275Z,21.52
2019-01-16T03:20:32.392Z,22.90
2019-01-16T03:23:25.468Z,22.93
2019-01-16T03:26:18.507Z,22.02
2019-01-16T03:29:14.364Z,20.72
2019-01-16T03:32:03.809Z,20.88
2019-01-16T03:35:05.056Z,22.27
2019-01-16T03:38:00.214Z,20.48
2019-01-16T03:40:51.607Z,22.22
2019-01-16T03:43:43.060Z,21.45
2019-01-16T03:46:28.717Z,21.77
2019-01-16T03:49:20.539Z,20.85
2019-01-16T03:52:27.746Z,22.10
2019-01-16T03:55:17.577Z,22.35
2019-01-16T03:58:22.132Z,23.35
2019-01-16T04:01:05.053Z,21.73
2019-01-16T04:04:08.838Z,22.70
2019-01-16T04:07:15.087Z,23.75
2019-01-16T04:10:10.611Z,22.22
2019-01-16T04:13:21.956Z,23.07
2019-01-16T04:16:18.033Z,20.95
2019-01-16T04:19:09.103Z,19.15
2019-01-16T04:22:00.270Z,21.07
2019-01-16T04:24:57.344Z,20.60
2019-01-16T04:27:52.431Z,20.00
2019-01-16T04:30:50.603Z,21.20
2019-01-16T04:33:55.769Z,19.80
2019-01-16T04:36:48.705Z,21.57
2019-01-16T04:39:40.446Z,20.45
2019-01-16T04:42:22.647Z,22.25
2019-01-16T04:45:24.531Z,20.77
2019-01-16T04:48:19.908Z,21.35
2019-01-16T04:51:22.928Z,20.97
2019-01-16T04:54:14.735Z,20.50
2019-01-16T04:57:15.823Z,23.83
2019-01-16T05:00:11.920Z,21.12
2019-01-16T05:03:07.266Z,22.02
2019-01-16T05:06:02.159Z,21.90
2019-01-16T05:08:55.183Z,21.62
2019-01-16T05:11:47.006Z,22.82
2019-01-16T05:14:33.502Z,21.70
2019-01-16T05:17:24.225Z,22.85
2019-01-16T05:20:15.426Z,23.50
2019-01-16T05:23:20.276Z,22.10
2019-01-16T05:26:12.202Z,22.90
2019-01-16T05:29:03.522Z,22.45
2019-01-16T05:32:14.253Z,22.77
2019-01-16T05:35:13.301Z,20.40
2019-01-16T05:38:11.572Z,23.18
2019-01-16T05:41:04.151Z,20.82
2019-01-16T05:44:03.903Z,21.42
2019-01-16T05:47:02.638Z,19.07
2019-01-16T05:49:55.053Z,21.07
2019-01-16T05:52:46.924Z,21.10
2019-01-16T05:55:57.840Z,19.82
2019-01-16T05:59:08.959Z,18.32
2019-01-16T06:02:04.076Z,19.05
2019-01-16T06:05:09.202Z,20.00
2019-01-16T06:08:07.605Z,20.90
2019-01-16T06:10:55.830Z,18.85
2019-01-16T06:13:39.689Z,19.15
2019-01-16T06:16:31.605Z,18.00
2019-01-16T06:19:17.746Z,18.12
2019-01-16T06:22:13.534Z,18.42
2019-01-16T06:25:08.603Z,19.37
2019-01-16T06:28:00.768Z,20.82
2019-01-16T06:30:48.795Z,18.92
2019-01-16T06:33:43.626Z,19.12
2019-01-16T06:36:36.557Z,17.75
2019-01-16T06:39:18.253Z,20.85
2019-01-16T06:42:00.566Z,19.30
2019-01-16T06:44:51.916Z,20.15
2019-01-16T06:47:44.990Z,22.42
2019-01-16T06:50:40.367Z,19.70
2019-01-16T06:53:46.068Z,22.48
2019-01-16T06:56:41.319Z,22.05
2019-01-16T06:59:23.421Z,24.07
2019-01-16T07:02:27.099Z,25.00
2019-01-16T07:05:20.088Z,25.08
2019-01-16T07:08:29.879Z,24.92
2019-01-16T07:11:46.935Z,24.92
2019-01-16T07:14:44.446Z,24.90
2019-01-16T07:17:43.085Z,24.72
2019-01-16T07:20:45.170Z,25.43
2019-01-16T07:23:40.308Z,24.90
2019-01-16T07:26:37.211Z,23.85
2019-01-16T07:29:48.121Z,25.08
2019-01-16T07:33:19.011Z,24.85
2019-01-16T07:36:27.580Z,23.73
2019-01-16T07:39:36.502Z,25.23
2019-01-16T07:42:46.900Z,25.80
2019-01-16T07:46:03.607Z,26.02
2019-01-16T07:49:16.623Z,26.93
2019-01-16T07:52:20.080Z,26.33
2019-01-16T07:55:23.832Z,24.37
2019-01-16T07:58:32.751Z,23.10
2019-01-16T08:01:31.753Z,22.73
2019-01-16T08:04:26.251Z,24.80
2019-01-16T08:07:19.292Z,23.92
2019-01-16T08:10:14.667Z,23.98
2019-01-16T08:13:25.441Z,21.90
2019-01-16T08:16:38.572Z,23.32
2019-01-16T08:19:45.171Z,23.45
2019-01-16T08:22:46.322Z,21.90
2019-01-16T08:25:42.935Z,22.65
2019-01-16T08:32:21.218Z,16.37
2019-01-16T08:35:56.710Z,14.98
2019-01-16T08:42:18.837Z,11.15
2019-01-16T08:45:29.408Z,11.75
2019-01-16T08:48:44.360Z,11.03
2019-01-16T08:51:35.983Z,10.72
2019-01-16T08:54:31.194Z,10.45
2019-01-16T08:57:31.444Z,11.05
2019-01-16T09:00:29.811Z,9.80
2019-01-16T09:03:28.938Z,9.30
2019-01-16T09:06:35.545Z,8.40
2019-01-16T09:09:35.720Z,9.55
2019-01-16T09:12:40.710Z,8.00
2019-01-16T09:15:51.615Z,8.63
2019-01-16T09:18:53.680Z,7.83
2019-01-16T09:21:49.821Z,6.92
2019-01-16T09:24:47.284Z,6.83
2019-01-16T09:27:45.312Z,6.97
2019-01-16T09:31:10.726Z,6.25
2019-01-16T09:34:38.164Z,6.80
2019-01-16T09:37:22.917Z,6.58
2019-01-16T09:40:14.099Z,6.35
2019-01-16T09:43:13.054Z,6.45
2019-01-16T09:49:36.237Z,6.10
2019-01-16T09:52:32.199Z,6.17
2019-01-16T09:58:53.875Z,6.65
2019-01-16T10:02:02.521Z,6.95
2019-01-16T10:05:01.261Z,5.65
2019-01-16T10:14:50.992Z,6.22
2019-01-16T10:17:52.662Z,6.03
2019-01-16T10:20:56.175Z,5.60
2019-01-16T10:24:11.180Z,5.53
2019-01-16T10:27:12.028Z,6.05
2019-01-16T10:30:17.345Z,5.90
2019-01-16T10:33:14.750Z,6.03
2019-01-16T10:36:20.536Z,5.25
2019-01-16T10:39:17.642Z,5.35
2019-01-16T10:42:09.740Z,5.05
2019-01-16T10:45:29.352Z,4.90
2019-01-16T10:48:29.572Z,4.58
2019-01-16T10:51:23.964Z,4.67
2019-01-16T10:54:25.203Z,4.70
2019-01-16T10:57:16.845Z,4.60
2019-01-16T11:00:07.934Z,4.75
2019-01-16T11:02:59.659Z,5.10
2019-01-16T11:05:59.501Z,4.80
2019-01-16T11:09:04.365Z,5.50
2019-01-16T11:11:57.807Z,5.28
2019-01-16T11:14:49.317Z,6.00
2019-01-16T11:17:42.498Z,6.85
2019-01-16T11:20:44.231Z,4.90
2019-01-16T11:23:39.344Z,5.45
2019-01-16T11:26:34.775Z,6.05
2019-01-16T11:29:35.196Z,5.60
2019-01-16T11:32:26.223Z,5.58
2019-01-16T11:35:24.587Z,6.20
2019-01-16T11:38:22.987Z,6.80
2019-01-16T11:41:21.124Z,6.30
2019-01-16T11:44:20.224Z,5.75
2019-01-16T11:47:12.543Z,7.95
2019-01-16T11:50:20.799Z,7.55
2019-01-16T11:53:16.324Z,7.70
2019-01-16T11:56:07.763Z,7.70
2019-01-16T11:59:06.028Z,9.30
2019-01-16T12:01:51.899Z,10.15
2019-01-16T12:04:39.026Z,8.53
2019-01-16T12:07:19.726Z,10.05
2019-01-16T12:10:24.147Z,10.13
2019-01-16T12:13:16.688Z,10.75
2019-01-16T12:16:07.222Z,12.82
2019-01-16T12:19:10.728Z,14.53
2019-01-16T12:25:23.208Z,10.70
2019-01-16T12:28:15.043Z,11.33
2019-01-16T12:31:09.332Z,11.50
2019-01-16T12:34:12.338Z,12.28
2019-01-16T12:37:09.980Z,11.83
2019-01-16T12:40:07.644Z,12.98
2019-01-16T12:43:19.460Z,13.85
2019-01-16T12:46:15.995Z,13.10
2019-01-16T12:49:34.634Z,12.55
2019-01-16T12:52:34.457Z,12.18
2019-01-16T12:55:32.233Z,11.48
2019-01-16T12:58:41.310Z,12.58
2019-01-16T13:01:48.037Z,12.80
2019-01-16T13:04:43.565Z,11.85
2019-01-16T13:07:44.398Z,11.30
2019-01-16T13:10:48.403Z,9.73
2019-01-16T13:13:44.767Z,11.00
2019-01-16T13:16:34.745Z,10.50
2019-01-16T13:19:38.432Z,10.30
2019-01-16T13:22:22.807Z,9.75
2019-01-16T13:25:21.569Z,9.43
2019-01-16T13:28:14.325Z,10.00
2019-01-16T13:31:07.021Z,9.15
2019-01-16T13:33:49.472Z,9.85
2019-01-16T13:36:33.058Z,8.73
2019-01-16T13:39:36.050Z,9.45
2019-01-16T13:42:19.969Z,8.80
2019-01-16T13:45:18.170Z,9.10
2019-01-16T13:48:10.670Z,9.43
2019-01-16T13:51:21.575Z,9.65
2019-01-16T13:54:11.993Z,9.33
2019-01-16T13:57:08.587Z,9.90
2019-01-16T14:00:00.633Z,8.40
2019-01-16T14:03:11.711Z,9.15
2019-01-16T14:06:07.667Z,10.50
2019-01-16T14:09:21.559Z,10.28
2019-01-16T14:12:18.343Z,9.70
2019-01-16T14:15:30.837Z,10.35
2019-01-16T14:18:27.492Z,9.23
2019-01-16T14:21:21.582Z,7.60
2019-01-16T14:24:19.755Z,8.50
2019-01-16T14:27:22.436Z,7.50
2019-01-16T14:30:26.633Z,6.67
2019-01-16T14:33:09.904Z,7.97
2019-01-16T14:36:05.513Z,9.60
2019-01-16T14:39:11.725Z,7.22
2019-01-16T14:42:03.440Z,7.70
2019-01-16T14:44:59.016Z,8.98
2019-01-16T14:47:59.142Z,8.45
2019-01-16T14:50:48.529Z,7.72
2019-01-16T14:53:49.212Z,9.00
2019-01-16T14:56:49.226Z,9.15
2019-01-16T14:59:33.933Z,7.95
2019-01-16T15:02:46.079Z,7.33
2019-01-16T15:05:51.883Z,8.03
2019-01-16T15:08:38.842Z,7.55
2019-01-16T15:11:34.746Z,8.13
2019-01-16T15:14:35.791Z,8.00
2019-01-16T15:17:27.298Z,8.83
2019-01-16T15:20:26.417Z,8.93
2019-01-16T15:23:13.249Z,8.85
2019-01-16T15:26:08.460Z,8.33
2019-01-16T15:28:59.540Z,8.00
2019-01-16T15:31:56.689Z,8.08
2019-01-16T15:34:48.102Z,8.60
2019-01-16T15:37:29.408Z,8.93
2019-01-16T15:40:21.420Z,8.88
2019-01-16T15:43:31.954Z,9.45
2019-01-16T15:46:33.868Z,9.05
2019-01-16T15:49:24.855Z,8.30
2019-01-16T15:52:16.498Z,9.60
2019-01-16T15:55:09.497Z,10.82
2019-01-16T15:58:11.534Z,8.80
2019-01-16T16:01:04.267Z,9.20
2019-01-16T16:04:02.773Z,9.95
2019-01-16T16:06:53.149Z,9.60
2019-01-16T16:09:56.246Z,9.80
2019-01-16T16:12:38.974Z,10.00
2019-01-16T16:15:37.553Z,9.48
2019-01-16T16:18:28.241Z,9.25
2019-01-16T16:21:30.619Z,10.25
2019-01-16T16:24:13.760Z,10.28
2019-01-16T16:27:12.673Z,9.63
2019-01-16T16:30:04.744Z,10.05
2019-01-16T16:32:56.030Z,9.65
2019-01-16T16:36:02.847Z,9.53
2019-01-16T16:38:56.397Z,9.30
2019-01-16T16:42:04.116Z,9.98
2019-01-16T16:44:58.473Z,9.50
2019-01-16T16:47:49.462Z,9.95
2019-01-16T16:50:43.052Z,10.10
2019-01-16T16:53:34.946Z,9.65
2019-01-16T16:56:29.108Z,10.15
2019-01-16T16:59:25.778Z,9.55
2019-01-16T17:02:37.538Z,10.40
2019-01-16T17:05:44.648Z,9.85
2019-01-16T17:08:45.780Z,10.18
2019-01-16T17:11:55.642Z,9.95
2019-01-16T17:14:51.406Z,10.78
2019-01-16T17:17:48.257Z,11.30
2019-01-16T17:20:43.959Z,10.03
2019-01-16T17:23:39.692Z,15.72
2019-01-16T17:26:30.785Z,10.70
2019-01-16T17:29:23.149Z,9.15
2019-01-16T17:32:14.785Z,9.85
2019-01-16T17:35:21.642Z,10.25
2019-01-16T17:38:17.676Z,9.30
2019-01-16T17:41:18.521Z,9.50
2019-01-16T17:44:22.333Z,10.25
2019-01-16T17:47:20.450Z,9.83
2019-01-16T17:50:19.882Z,9.78
2019-01-16T17:53:09.143Z,8.58
2019-01-16T17:55:56.589Z,8.90
2019-01-16T17:58:50.177Z,9.25
2019-01-16T18:01:42.103Z,8.35
2019-01-16T18:04:31.704Z,7.70
2019-01-16T18:07:31.780Z,7.62
2019-01-16T18:10:16.350Z,8.18
2019-01-16T18:13:13.225Z,7.47
2019-01-16T18:16:12.499Z,6.03
2019-01-16T18:19:05.374Z,8.35
2019-01-16T18:22:00.255Z,7.62
2019-01-16T18:24:58.842Z,7.80
2019-01-16T18:27:52.829Z,7.40
2019-01-16T18:30:46.630Z,7.20
2019-01-16T18:33:39.952Z,6.53
2019-01-16T18:36:40.633Z,6.80
2019-01-16T18:39:53.586Z,7.58
2019-01-16T18:42:58.263Z,6.83
2019-01-16T18:45:46.512Z,6.35
2019-01-16T18:48:57.846Z,7.20
2019-01-16T18:51:56.696Z,6.67
2019-01-16T18:55:05.636Z,7.35
2019-01-16T18:57:52.253Z,6.15
2019-01-16T19:01:10.679Z,6.12
2019-01-16T19:03:55.355Z,6.10
2019-01-16T19:06:53.148Z,6.30
2019-01-16T19:09:50.489Z,6.30
2019-01-16T19:13:04.598Z,6.10
2019-01-16T19:15:55.791Z,5.60
2019-01-16T19:19:14.700Z,6.45
2019-01-16T19:22:17.995Z,7.08
2019-01-16T19:25:10.398Z,6.30
2019-01-16T19:28:09.855Z,7.70
2019-01-16T19:31:08.045Z,6.67
2019-01-16T19:34:15.120Z,6.30
2019-01-16T19:37:20.617Z,6.75
2019-01-16T19:40:14.601Z,6.30
2019-01-16T19:43:10.516Z,6.12
2019-01-16T19:46:27.148Z,6.28
2019-01-16T19:49:20.253Z,5.35
2019-01-16T19:52:23.028Z,6.40
2019-01-16T19:55:23.124Z,6.35
2019-01-16T19:58:28.200Z,6.60
2019-01-16T20:01:22.527Z,6.20
2019-01-16T20:04:27.304Z,6.75
2019-01-16T20:07:26.058Z,5.67
2019-01-16T20:10:43.118Z,6.65
2019-01-16T20:13:43.796Z,5.42
2019-01-16T20:16:43.536Z,6.03
2019-01-16T20:19:41.129Z,7.20
2019-01-16T20:22:44.947Z,6.05
2019-01-16T20:25:48.716Z,6.85
2019-01-16T20:29:02.831Z,6.10
2019-01-16T20:31:55.736Z,5.33
2019-01-16T20:34:52.808Z,6.17
2019-01-16T20:37:50.768Z,5.97
2019-01-16T20:40:45.536Z,5.90
2019-01-16T20:43:39.537Z,5.53
2019-01-16T20:46:56.703Z,6.08
2019-01-16T20:50:04.482Z,6.42
2019-01-16T20:53:10.676Z,6.15
2019-01-16T20:56:04.773Z,5.95
2019-01-16T20:59:18.210Z,6.33
2019-01-16T21:02:28.652Z,6.62
2019-01-16T21:05:41.441Z,7.30
2019-01-16T21:08:33.078Z,6.45
2019-01-16T21:11:17.100Z,7.15
2019-01-16T21:14:19.244Z,6.80
2019-01-16T21:17:17.756Z,7.85
2019-01-16T21:20:22.556Z,7.50
2019-01-16T21:23:23.942Z,7.97
2019-01-16T21:26:20.660Z,7.60
2019-01-16T21:29:20.417Z,7.12
2019-01-16T21:32:13.928Z,8.20
2019-01-16T21:35:10.003Z,8.68
2019-01-16T21:38:14.285Z,8.20
2019-01-16T21:41:13.167Z,8.28
2019-01-16T21:44:06.215Z,8.25
2019-01-16T21:47:19.691Z,8.83
2019-01-16T21:50:30.866Z,8.73
2019-01-16T21:53:32.554Z,7.62
2019-01-16T21:56:34.571Z,7.80
2019-01-16T21:59:39.695Z,8.68
2019-01-16T22:02:32.738Z,8.50
2019-01-16T22:05:24.199Z,7.50
2019-01-16T22:08:46.481Z,7.12
2019-01-16T22:12:01.987Z,8.05
2019-01-16T22:14:48.160Z,7.95
2019-01-16T22:17:39.159Z,8.25
2019-01-16T22:20:34.261Z,7.80
2019-01-16T22:23:26.853Z,7.30
2019-01-16T22:26:17.357Z,7.60
2019-01-16T22:29:12.380Z,7.58
2019-01-16T22:31:57.398Z,7.28
2019-01-16T22:34:48.778Z,7.92
2019-01-16T22:37:47.441Z,7.20
2019-01-16T22:40:39.745Z,8.18
2019-01-16T22:43:31.101Z,8.45
2019-01-16T22:46:19.267Z,9.38
2019-01-16T22:49:14.792Z,8.80
2019-01-16T22:52:19.729Z,9.40
2019-01-16T22:55:11.683Z,9.83
2019-01-16T22:58:02.705Z,10.15
2019-01-16T23:01:00.177Z,9.45
2019-01-16T23:03:47.984Z,10.15
2019-01-16T23:06:43.493Z,10.53
2019-01-16T23:09:34.504Z,10.65
2019-01-16T23:12:25.597Z,12.07
2019-01-16T23:15:20.245Z,12.93
2019-01-16T23:18:12.373Z,11.78
2019-01-16T23:21:06.382Z,11.83
2019-01-16T23:24:28.660Z,12.60
2019-01-16T23:27:27.821Z,12.40
2019-01-16T23:30:26.698Z,13.05
2019-01-16T23:33:43.609Z,13.85
2019-01-16T23:36:36.943Z,13.15
2019-01-16T23:39:36.863Z,12.90
2019-01-16T23:42:35.905Z,13.15
2019-01-16T23:45:31.085Z,13.88
2019-01-16T23:48:35.855Z,14.55
2019-01-16T23:51:36.568Z,12.05
2019-01-16T23:54:28.745Z,12.13
2019-01-16T23:57:24.760Z,11.55
